Eulalia, Pennsylvania
Current Conditions -  °F | °C
As of 6:56 AM on Monday 20 Oct 2014 (Local Time) from KELZ Reporting Station
Clear Clear  
Wind Chill: 34°   Ceiling: Unl
Heat Index: 39°   Visibility: 10mi
Dew Point: 31°   Wind: 7mph
Humidity: 73%   Direction: 240°WSW
Pressure: 29.97"   Gusts: NA
Location:  41.7605°N, 77.9728°W
Report Text: KELZ 201056Z AUTO 24006KT 10SM CLR 04/M01 A2997 RMK AO2 SLP163 T00391006
Loading
Personal Weather Stations






























Interactive Weather Map New forecast layout! Learn more

10-Day Weather Forecast

Advertisements
Track Severe Weather on mobile